createdAt,value
2022-12-18T00:01:41.592Z,71.49
2022-12-18T00:04:20.021Z,70.79
2022-12-18T00:06:47.513Z,71.19
2022-12-18T00:09:15.510Z,71.11
2022-12-18T00:11:42.720Z,70.85
2022-12-18T00:14:11.873Z,69.83
2022-12-18T00:16:39.096Z,70.57
2022-12-18T00:19:06.602Z,70.62
2022-12-18T00:21:36.231Z,69.87
2022-12-18T00:24:04.335Z,70.34
2022-12-18T00:26:38.129Z,70.00
2022-12-18T00:29:12.385Z,70.02
2022-12-18T00:31:39.340Z,69.63
2022-12-18T00:34:07.444Z,69.32
2022-12-18T00:36:37.757Z,69.43
2022-12-18T00:39:07.939Z,69.18
2022-12-18T00:41:53.468Z,69.20
2022-12-18T00:44:21.003Z,68.84
2022-12-18T00:46:48.963Z,69.37
2022-12-18T00:49:20.703Z,69.24
2022-12-18T00:51:50.924Z,69.68
2022-12-18T00:54:18.636Z,69.74
2022-12-18T00:56:49.077Z,70.71
2022-12-18T00:59:17.809Z,70.10
2022-12-18T01:01:45.397Z,68.81
2022-12-18T01:04:12.722Z,69.49
2022-12-18T01:06:39.545Z,69.19
2022-12-18T01:09:10.108Z,69.41
2022-12-18T01:11:41.384Z,68.89
2022-12-18T01:14:08.123Z,68.58
2022-12-18T01:16:35.055Z,68.63
2022-12-18T01:19:01.708Z,69.34
2022-12-18T01:21:28.494Z,68.53
2022-12-18T01:23:57.375Z,68.03
2022-12-18T01:26:25.321Z,68.00
2022-12-18T01:28:51.934Z,67.01
2022-12-18T01:31:20.447Z,67.27
2022-12-18T01:33:47.294Z,67.59
2022-12-18T01:36:23.413Z,67.20
2022-12-18T01:38:50.544Z,67.97
2022-12-18T01:41:19.827Z,68.30
2022-12-18T01:43:52.835Z,68.77
2022-12-18T01:46:21.796Z,69.24
2022-12-18T01:48:55.012Z,68.57
2022-12-18T01:51:25.498Z,69.37
2022-12-18T01:53:52.701Z,69.07
2022-12-18T01:56:23.679Z,69.51
2022-12-18T01:59:03.351Z,69.35
2022-12-18T02:01:55.929Z,70.99
2022-12-18T02:04:27.887Z,69.55
2022-12-18T02:07:12.889Z,69.60
2022-12-18T02:10:15.123Z,70.09
2022-12-18T02:12:56.073Z,69.49
2022-12-18T02:15:25.194Z,70.05
2022-12-18T02:18:10.107Z,70.67
2022-12-18T02:20:52.523Z,70.55
2022-12-18T02:23:31.548Z,70.36
2022-12-18T02:26:10.238Z,69.99
2022-12-18T02:28:47.591Z,69.72
2022-12-18T02:31:21.156Z,69.30
2022-12-18T02:33:54.597Z,70.25
2022-12-18T02:36:26.978Z,69.66
2022-12-18T02:38:56.021Z,69.68
2022-12-18T02:41:24.850Z,69.29
2022-12-18T02:43:58.099Z,68.97
2022-12-18T02:46:37.738Z,68.47
2022-12-18T02:49:27.169Z,68.60
2022-12-18T02:52:00.868Z,68.25
2022-12-18T02:54:48.543Z,68.56
2022-12-18T03:00:35.820Z,68.17
2022-12-18T03:03:21.541Z,68.20
2022-12-18T03:06:26.723Z,67.41
2022-12-18T03:09:07.220Z,67.36
2022-12-18T03:11:57.123Z,66.96
2022-12-18T03:14:26.952Z,67.03
2022-12-18T03:16:59.010Z,67.43
2022-12-18T03:19:30.293Z,67.76
2022-12-18T03:21:59.781Z,67.91
2022-12-18T03:24:30.164Z,67.31
2022-12-18T03:27:03.576Z,67.51
2022-12-18T03:29:47.872Z,67.92
2022-12-18T03:32:27.678Z,67.54
2022-12-18T03:34:58.928Z,67.64
2022-12-18T03:37:31.315Z,67.92
2022-12-18T03:39:58.287Z,67.90
2022-12-18T03:42:42.178Z,67.76
2022-12-18T03:45:15.530Z,67.49
2022-12-18T03:48:13.006Z,68.48
2022-12-18T03:50:54.962Z,68.21
2022-12-18T03:53:42.433Z,67.93
2022-12-18T03:56:13.391Z,67.64
2022-12-18T03:58:42.462Z,67.21
2022-12-18T04:01:14.529Z,67.51
2022-12-18T04:03:43.252Z,67.87
2022-12-18T04:06:12.031Z,68.23
2022-12-18T04:08:40.985Z,67.69
2022-12-18T04:11:07.643Z,68.04
2022-12-18T04:13:40.850Z,68.37
2022-12-18T04:16:08.161Z,68.32
2022-12-18T04:18:35.256Z,68.66
2022-12-18T04:21:02.310Z,68.46
2022-12-18T04:23:29.383Z,67.97
2022-12-18T04:25:56.314Z,68.30
2022-12-18T04:28:24.147Z,67.77
2022-12-18T04:30:51.016Z,67.99
2022-12-18T04:33:17.807Z,68.24
2022-12-18T04:35:44.904Z,68.36
2022-12-18T04:38:11.564Z,68.17
2022-12-18T04:40:39.361Z,67.69
2022-12-18T04:43:07.898Z,67.41
2022-12-18T04:45:34.994Z,66.93
2022-12-18T04:48:05.931Z,66.58
2022-12-18T04:50:34.151Z,66.28
2022-12-18T04:53:01.160Z,66.55
2022-12-18T04:55:28.769Z,66.65
2022-12-18T04:57:58.686Z,66.29
2022-12-18T05:00:26.044Z,66.13
2022-12-18T05:02:53.140Z,65.48
2022-12-18T05:05:19.871Z,66.10
2022-12-18T05:07:47.287Z,64.51
2022-12-18T05:10:15.510Z,64.67
2022-12-18T05:13:01.604Z,64.51
2022-12-18T05:15:38.167Z,64.98
2022-12-18T05:18:05.223Z,64.78
2022-12-18T05:20:32.632Z,64.09
2022-12-18T05:23:02.327Z,63.73
2022-12-18T05:25:30.396Z,64.28
2022-12-18T05:27:57.589Z,64.19
2022-12-18T05:30:24.782Z,64.22
2022-12-18T05:32:51.537Z,63.42
2022-12-18T05:35:18.465Z,63.32
2022-12-18T05:37:52.269Z,63.38
2022-12-18T05:40:19.135Z,62.77
2022-12-18T05:42:47.798Z,63.36
2022-12-18T05:45:16.420Z,64.04
2022-12-18T05:47:43.168Z,63.33
2022-12-18T05:50:10.284Z,63.25
2022-12-18T05:52:37.198Z,64.11
2022-12-18T05:55:06.719Z,63.47
2022-12-18T05:57:36.644Z,63.39
2022-12-18T06:00:06.975Z,63.66
2022-12-18T06:02:33.836Z,63.63
2022-12-18T06:05:01.428Z,63.66
2022-12-18T06:07:28.132Z,64.17
2022-12-18T06:09:54.855Z,63.23
2022-12-18T06:12:22.207Z,63.74
2022-12-18T06:14:49.259Z,64.12
2022-12-18T06:17:15.936Z,63.47
2022-12-18T06:19:45.384Z,63.90
2022-12-18T06:22:12.043Z,63.66
2022-12-18T06:24:38.872Z,63.42
2022-12-18T06:27:05.470Z,63.96
2022-12-18T06:29:32.129Z,65.65
2022-12-18T06:31:58.899Z,65.27
2022-12-18T06:34:25.636Z,63.98
2022-12-18T06:36:52.273Z,64.43
2022-12-18T06:39:19.076Z,64.40
2022-12-18T06:41:48.693Z,63.94
2022-12-18T06:44:15.514Z,63.76
2022-12-18T06:46:45.396Z,64.36
2022-12-18T06:49:12.458Z,63.58
2022-12-18T06:51:42.746Z,64.53
2022-12-18T06:54:09.842Z,64.51
2022-12-18T06:56:41.405Z,64.50
2022-12-18T06:59:10.182Z,66.09
2022-12-18T07:01:37.021Z,65.36
2022-12-18T07:04:05.042Z,65.36
2022-12-18T07:06:34.546Z,65.32
2022-12-18T07:09:02.932Z,65.02
2022-12-18T07:11:29.674Z,64.83
2022-12-18T07:13:56.460Z,64.38
2022-12-18T07:16:29.500Z,64.90
2022-12-18T07:18:57.481Z,64.70
2022-12-18T07:21:36.965Z,65.08
2022-12-18T07:24:11.078Z,64.96
2022-12-18T07:26:37.992Z,65.04
2022-12-18T07:29:06.999Z,65.59
2022-12-18T07:31:33.750Z,65.13
2022-12-18T07:34:03.330Z,65.14
2022-12-18T07:36:34.231Z,64.08
2022-12-18T07:39:05.619Z,64.96
2022-12-18T07:41:32.604Z,64.46
2022-12-18T07:43:59.384Z,64.47
2022-12-18T07:46:26.186Z,65.08
2022-12-18T07:48:53.032Z,64.96
2022-12-18T07:51:22.830Z,64.73
2022-12-18T07:53:52.243Z,65.57
2022-12-18T07:56:29.081Z,64.94
2022-12-18T07:58:57.863Z,64.53
2022-12-18T08:01:24.812Z,64.63
2022-12-18T08:03:51.661Z,64.57
2022-12-18T08:06:24.523Z,65.51
2022-12-18T08:09:01.123Z,65.14
2022-12-18T08:11:29.773Z,65.23
2022-12-18T08:14:03.164Z,65.43
2022-12-18T08:16:30.132Z,66.12
2022-12-18T08:18:58.252Z,65.59
2022-12-18T08:21:27.791Z,65.86
2022-12-18T08:23:56.380Z,65.81
2022-12-18T08:26:24.451Z,66.06
2022-12-18T08:28:51.905Z,66.40
2022-12-18T08:31:22.157Z,64.67
2022-12-18T08:33:52.390Z,64.15
2022-12-18T08:36:20.790Z,63.53
2022-12-18T08:38:50.528Z,63.83
2022-12-18T08:41:21.582Z,63.54
2022-12-18T08:44:10.445Z,63.59
2022-12-18T08:46:43.948Z,61.88
2022-12-18T08:49:15.746Z,62.46
2022-12-18T08:51:42.508Z,62.08
2022-12-18T08:54:13.588Z,63.55
2022-12-18T08:56:40.573Z,61.88
2022-12-18T08:59:17.587Z,61.95
2022-12-18T09:01:56.747Z,62.17
2022-12-18T09:04:28.239Z,62.01
2022-12-18T09:07:00.681Z,61.71
2022-12-18T09:09:36.570Z,62.03
2022-12-18T09:12:04.506Z,61.94
2022-12-18T09:14:31.173Z,62.12
2022-12-18T09:16:58.161Z,62.00
2022-12-18T09:19:28.859Z,61.54
2022-12-18T09:22:00.581Z,61.22
2022-12-18T09:24:31.406Z,60.95
2022-12-18T09:27:01.017Z,61.48
2022-12-18T09:29:27.694Z,60.95
2022-12-18T09:31:54.666Z,61.38
2022-12-18T09:34:24.883Z,61.00
2022-12-18T09:36:52.010Z,60.42
2022-12-18T09:39:21.844Z,61.09
2022-12-18T09:41:51.141Z,60.77
2022-12-18T09:44:47.446Z,62.01
2022-12-18T09:47:29.730Z,60.99
2022-12-18T09:50:03.886Z,60.58
2022-12-18T09:52:53.522Z,60.70
2022-12-18T09:55:42.489Z,60.51
2022-12-18T09:58:33.329Z,60.75
2022-12-18T10:01:38.927Z,60.38
2022-12-18T10:04:10.376Z,59.86
2022-12-18T10:06:46.694Z,59.42
2022-12-18T10:09:29.565Z,59.33
2022-12-18T10:12:19.208Z,60.65
2022-12-18T10:15:09.384Z,61.79
2022-12-18T10:17:47.008Z,60.12
2022-12-18T10:20:55.729Z,59.97
2022-12-18T10:23:38.097Z,59.95
2022-12-18T10:26:13.750Z,59.93
2022-12-18T10:28:45.250Z,59.60
2022-12-18T10:31:21.540Z,59.21
2022-12-18T10:33:51.915Z,60.08
2022-12-18T10:36:20.209Z,60.35
2022-12-18T10:38:48.791Z,60.36
2022-12-18T10:41:29.754Z,60.56
2022-12-18T10:44:21.374Z,60.85
2022-12-18T10:46:50.924Z,60.45
2022-12-18T10:49:35.901Z,60.01
2022-12-18T10:52:18.574Z,60.14
2022-12-18T10:55:05.265Z,58.99
2022-12-18T10:57:44.585Z,59.39
2022-12-18T11:00:31.770Z,58.98
2022-12-18T11:02:59.168Z,58.50
2022-12-18T11:05:32.853Z,58.03
2022-12-18T11:08:01.175Z,59.39
2022-12-18T11:10:40.338Z,59.27
2022-12-18T11:13:12.883Z,60.45
2022-12-18T11:15:45.617Z,59.70
2022-12-18T11:18:18.937Z,58.75
2022-12-18T11:20:58.184Z,58.56
2022-12-18T11:23:28.174Z,58.88
2022-12-18T11:26:04.314Z,59.01
2022-12-18T11:28:45.008Z,59.23
2022-12-18T11:31:27.468Z,59.00
2022-12-18T11:34:30.284Z,58.86
2022-12-18T11:36:50.354Z,58.96
2022-12-18T11:39:41.492Z,59.82
2022-12-18T11:42:23.933Z,59.44
2022-12-18T11:45:09.696Z,59.01
2022-12-18T11:48:13.454Z,60.08
2022-12-18T11:50:55.740Z,59.62
2022-12-18T11:53:25.468Z,59.74
2022-12-18T11:56:24.058Z,59.46
2022-12-18T11:58:54.711Z,59.59
2022-12-18T12:01:46.474Z,59.94
2022-12-18T12:04:17.804Z,60.17
2022-12-18T12:07:02.809Z,60.19
2022-12-18T12:09:48.165Z,60.76
2022-12-18T12:12:15.970Z,61.39
2022-12-18T12:15:21.719Z,60.81
2022-12-18T12:18:19.583Z,61.07
2022-12-18T12:20:58.338Z,60.66
2022-12-18T12:24:02.865Z,60.47
2022-12-18T12:26:51.480Z,60.75
2022-12-18T12:29:56.145Z,60.82
2022-12-18T12:32:48.873Z,60.83
2022-12-18T12:35:23.861Z,60.94
2022-12-18T12:38:15.071Z,60.74
2022-12-18T12:41:03.265Z,61.19
2022-12-18T12:43:50.599Z,61.05
2022-12-18T12:46:22.905Z,61.15
2022-12-18T12:49:00.270Z,60.75
2022-12-18T12:51:35.633Z,60.59
2022-12-18T12:54:06.655Z,61.23
2022-12-18T12:56:51.381Z,61.71
2022-12-18T13:00:13.161Z,61.80
2022-12-18T13:02:56.235Z,62.15
2022-12-18T13:05:40.883Z,61.85
2022-12-18T13:08:12.863Z,62.24
2022-12-18T13:10:42.883Z,61.79
2022-12-18T13:13:24.276Z,62.11
2022-12-18T13:16:10.467Z,62.45
2022-12-18T13:18:49.225Z,62.20
2022-12-18T13:21:53.741Z,62.53
2022-12-18T13:24:28.325Z,62.37
2022-12-18T13:27:01.702Z,62.11
2022-12-18T13:29:46.822Z,61.86
2022-12-18T13:32:27.107Z,62.70
2022-12-18T13:35:22.677Z,62.52
2022-12-18T13:37:54.726Z,62.08
2022-12-18T13:40:40.789Z,62.96
2022-12-18T13:43:20.428Z,63.00
2022-12-18T13:46:05.594Z,63.34
2022-12-18T13:48:38.080Z,63.27
2022-12-18T13:51:15.556Z,63.83
2022-12-18T13:54:00.412Z,64.25
2022-12-18T13:56:30.792Z,64.28
2022-12-18T13:59:22.830Z,63.65
2022-12-18T14:01:56.493Z,64.13
2022-12-18T14:04:30.795Z,64.12
2022-12-18T14:07:17.620Z,64.17
2022-12-18T14:10:01.962Z,64.21
2022-12-18T14:13:03.285Z,64.24
2022-12-18T14:15:46.078Z,64.82
2022-12-18T14:18:45.469Z,65.07
2022-12-18T14:21:32.965Z,64.51
2022-12-18T14:24:23.005Z,64.08
2022-12-18T14:26:52.541Z,63.85
2022-12-18T14:29:37.105Z,63.58
2022-12-18T14:32:19.031Z,64.48
2022-12-18T14:34:48.200Z,64.01
2022-12-18T14:37:29.088Z,64.35
2022-12-18T14:40:10.829Z,64.79
2022-12-18T14:42:43.996Z,64.06
2022-12-18T14:45:41.051Z,64.76
2022-12-18T14:48:43.445Z,64.82
2022-12-18T14:51:21.672Z,64.56
2022-12-18T14:53:55.371Z,65.23
2022-12-18T14:56:33.027Z,64.54
2022-12-18T14:59:24.758Z,65.40
2022-12-18T15:02:11.901Z,65.06
2022-12-18T15:04:43.326Z,65.30
2022-12-18T15:07:18.737Z,65.09
2022-12-18T15:10:17.986Z,65.60
2022-12-18T15:13:00.807Z,65.14
2022-12-18T15:15:46.005Z,66.24
2022-12-18T15:18:18.918Z,65.70
2022-12-18T15:20:56.836Z,65.37
2022-12-18T15:23:46.146Z,66.31
2022-12-18T15:26:16.896Z,67.78
2022-12-18T15:28:58.468Z,66.84
2022-12-18T15:31:38.588Z,68.07
2022-12-18T15:34:26.715Z,68.44
2022-12-18T15:36:53.573Z,68.65
2022-12-18T15:39:20.461Z,67.88
2022-12-18T15:42:07.184Z,70.12
2022-12-18T15:44:34.619Z,69.58
2022-12-18T15:47:04.585Z,69.87
2022-12-18T15:49:31.797Z,70.38
2022-12-18T15:52:14.027Z,69.84
2022-12-18T15:54:59.282Z,68.98
2022-12-18T15:57:25.991Z,69.31
2022-12-18T15:59:54.201Z,69.11
2022-12-18T16:02:25.940Z,69.42
2022-12-18T16:04:58.275Z,70.00
2022-12-18T16:07:27.348Z,69.38
2022-12-18T16:09:57.664Z,70.69
2022-12-18T16:12:28.867Z,70.97
2022-12-18T16:14:55.565Z,71.45
2022-12-18T16:17:23.165Z,71.64
2022-12-18T16:19:50.060Z,71.66
2022-12-18T16:22:27.277Z,72.23
2022-12-18T16:24:57.614Z,71.59
2022-12-18T16:27:27.856Z,71.70
2022-12-18T16:29:58.131Z,71.95
2022-12-18T16:32:30.153Z,72.48
2022-12-18T16:35:04.893Z,72.00
2022-12-18T16:37:32.475Z,71.70
2022-12-18T16:39:59.297Z,71.38
2022-12-18T16:42:26.551Z,71.10
2022-12-18T16:44:53.368Z,72.14
2022-12-18T16:47:21.638Z,73.14
2022-12-18T16:49:51.851Z,72.09
2022-12-18T16:52:19.349Z,71.66
2022-12-18T16:54:46.480Z,72.63
2022-12-18T16:57:14.696Z,71.74
2022-12-18T16:59:41.498Z,72.76
2022-12-18T17:02:19.165Z,73.40
2022-12-18T17:04:50.815Z,73.22
2022-12-18T17:07:17.592Z,73.04
2022-12-18T17:09:44.967Z,73.33
2022-12-18T17:12:11.962Z,73.52
2022-12-18T17:14:41.525Z,74.01
2022-12-18T17:17:24.251Z,74.46
2022-12-18T17:19:52.646Z,74.16
2022-12-18T17:22:20.558Z,74.62
2022-12-18T17:24:48.062Z,75.17
2022-12-18T17:27:15.443Z,74.75
2022-12-18T17:29:47.244Z,74.29
2022-12-18T17:32:16.223Z,74.50
2022-12-18T17:34:43.075Z,74.62
2022-12-18T17:37:12.341Z,74.24
2022-12-18T17:39:42.769Z,74.78
2022-12-18T17:42:14.986Z,75.46
2022-12-18T17:44:42.778Z,76.04
2022-12-18T17:47:13.149Z,75.86
2022-12-18T17:49:43.054Z,75.82
2022-12-18T17:52:09.998Z,75.73
2022-12-18T17:54:46.453Z,75.99
2022-12-18T17:57:14.917Z,75.94
2022-12-18T17:59:43.209Z,75.91
2022-12-18T18:02:12.085Z,76.35
2022-12-18T18:04:39.246Z,76.51
2022-12-18T18:07:06.213Z,76.46
2022-12-18T18:09:33.188Z,76.11
2022-12-18T18:12:18.390Z,76.43
2022-12-18T18:14:45.182Z,76.76
2022-12-18T18:17:12.001Z,76.36
2022-12-18T18:19:38.651Z,76.48
2022-12-18T18:22:06.566Z,76.41
2022-12-18T18:24:33.578Z,76.30
2022-12-18T18:27:00.312Z,76.55
2022-12-18T18:29:30.465Z,76.52
2022-12-18T18:31:57.596Z,76.53
2022-12-18T18:34:30.485Z,76.56
2022-12-18T18:37:01.942Z,77.29
2022-12-18T18:39:29.159Z,77.17
2022-12-18T18:41:56.304Z,77.52
2022-12-18T18:44:26.079Z,77.51
2022-12-18T18:46:57.502Z,76.85
2022-12-18T18:49:28.185Z,76.64
2022-12-18T18:51:59.271Z,77.06
2022-12-18T18:54:27.975Z,76.53
2022-12-18T18:59:42.809Z,76.75
2022-12-18T19:02:15.588Z,76.57
2022-12-18T19:04:46.668Z,77.43
2022-12-18T19:07:30.420Z,76.69
2022-12-18T19:10:04.761Z,76.62
2022-12-18T19:12:51.129Z,76.82
2022-12-18T19:15:18.086Z,76.42
2022-12-18T19:17:46.060Z,76.77
2022-12-18T19:20:15.313Z,76.81
2022-12-18T19:22:42.259Z,76.46
2022-12-18T19:25:17.532Z,75.98
2022-12-18T19:27:50.200Z,75.21
2022-12-18T19:30:25.825Z,74.34
2022-12-18T19:32:55.366Z,73.72
2022-12-18T19:35:22.037Z,72.95
2022-12-18T19:37:49.537Z,74.15
2022-12-18T19:40:16.547Z,75.04
2022-12-18T19:42:43.201Z,75.30
2022-12-18T19:45:10.303Z,76.21
2022-12-18T19:47:37.218Z,76.61
2022-12-18T19:50:04.403Z,76.17
2022-12-18T19:52:36.053Z,76.36
2022-12-18T19:55:04.022Z,77.04
2022-12-18T19:57:31.974Z,77.16
2022-12-18T20:00:06.689Z,77.17
2022-12-18T20:02:36.560Z,77.16
2022-12-18T20:05:09.829Z,77.16
2022-12-18T20:07:37.684Z,77.34
2022-12-18T20:10:15.483Z,77.35
2022-12-18T20:12:46.711Z,77.39
2022-12-18T20:15:13.456Z,77.28
2022-12-18T20:17:40.388Z,77.30
2022-12-18T20:20:08.231Z,77.46
2022-12-18T20:22:35.408Z,77.23
2022-12-18T20:25:03.403Z,78.24
2022-12-18T20:27:30.207Z,78.19
2022-12-18T20:29:57.178Z,77.98
2022-12-18T20:32:26.266Z,78.14
2022-12-18T20:34:56.190Z,77.12
2022-12-18T20:37:27.649Z,76.83
2022-12-18T20:39:55.262Z,76.60
2022-12-18T20:42:22.183Z,76.12
2022-12-18T20:44:51.717Z,76.04
2022-12-18T20:47:22.059Z,75.75
2022-12-18T20:49:49.053Z,76.64
2022-12-18T20:52:15.962Z,76.73
2022-12-18T20:54:49.016Z,76.85
2022-12-18T20:57:15.787Z,77.37
2022-12-18T20:59:47.969Z,77.75
2022-12-18T21:02:15.787Z,77.22
2022-12-18T21:04:43.015Z,77.81
2022-12-18T21:07:10.864Z,77.83
2022-12-18T21:09:42.314Z,77.70
2022-12-18T21:12:45.229Z,78.25
2022-12-18T21:15:16.646Z,78.54
2022-12-18T21:17:45.197Z,78.29
2022-12-18T21:20:19.196Z,78.13
2022-12-18T21:22:47.380Z,78.38
2022-12-18T21:25:17.228Z,78.63
2022-12-18T21:27:46.688Z,78.83
2022-12-18T21:30:15.271Z,78.73
2022-12-18T21:32:42.316Z,78.75
2022-12-18T21:35:09.801Z,79.22
2022-12-18T21:37:37.245Z,78.99
2022-12-18T21:40:11.488Z,78.73
2022-12-18T21:42:56.940Z,78.37
2022-12-18T21:45:24.485Z,78.51
2022-12-18T21:47:51.448Z,78.10
2022-12-18T21:50:21.351Z,78.06
2022-12-18T21:52:51.269Z,77.61
2022-12-18T21:55:54.768Z,77.40
2022-12-18T21:58:24.380Z,76.97
2022-12-18T22:00:53.604Z,76.84
2022-12-18T22:03:20.547Z,77.20
2022-12-18T22:05:50.591Z,77.41
2022-12-18T22:08:29.256Z,77.26
2022-12-18T22:10:58.561Z,77.27
2022-12-18T22:13:27.809Z,77.25
2022-12-18T22:15:58.769Z,76.47
2022-12-18T22:18:30.785Z,76.62
2022-12-18T22:21:04.624Z,75.99
2022-12-18T22:23:34.595Z,76.38
2022-12-18T22:26:04.660Z,76.33
2022-12-18T22:28:50.095Z,76.95
2022-12-18T22:31:22.941Z,77.41
2022-12-18T22:33:49.799Z,77.08
2022-12-18T22:36:16.581Z,77.72
2022-12-18T22:38:49.361Z,77.77
2022-12-18T22:41:45.396Z,77.69
2022-12-18T22:44:15.044Z,77.59
2022-12-18T22:47:00.618Z,77.42
2022-12-18T22:49:38.718Z,78.31
2022-12-18T22:52:09.535Z,79.14
2022-12-18T22:54:36.640Z,78.92
2022-12-18T22:57:05.517Z,80.17
2022-12-18T22:59:43.967Z,80.11
2022-12-18T23:02:13.609Z,79.98
2022-12-18T23:04:44.797Z,80.88
2022-12-18T23:09:39.631Z,80.77
2022-12-18T23:12:35.146Z,81.25
2022-12-18T23:15:05.614Z,81.52
2022-12-18T23:17:38.755Z,82.12
2022-12-18T23:20:07.031Z,81.90
2022-12-18T23:22:36.337Z,82.04
2022-12-18T23:25:15.374Z,82.24
2022-12-18T23:27:42.200Z,82.00
2022-12-18T23:30:10.273Z,82.25
2022-12-18T23:32:40.187Z,82.46
2022-12-18T23:35:07.545Z,82.47
2022-12-18T23:37:58.616Z,83.30
2022-12-18T23:40:25.914Z,83.39
2022-12-18T23:42:52.582Z,83.61
2022-12-18T23:45:20.458Z,83.40
2022-12-18T23:47:53.697Z,84.03
2022-12-18T23:50:23.779Z,82.96
2022-12-18T23:53:05.372Z,83.79
2022-12-18T23:55:33.777Z,83.58
2022-12-18T23:58:01.006Z,84.13
